createdAt,value
2019-03-10T00:00:21.068Z,53.29
2019-03-10T00:03:24.765Z,53.71
2019-03-10T00:06:26.624Z,54.49
2019-03-10T00:09:28.621Z,53.97
2019-03-10T00:12:30.514Z,54.32
2019-03-10T00:15:32.557Z,54.22
2019-03-10T00:18:34.463Z,53.73
2019-03-10T00:21:36.432Z,54.46
2019-03-10T00:24:38.329Z,54.17
2019-03-10T00:27:40.261Z,54.36
2019-03-10T00:30:42.226Z,54.52
2019-03-10T00:33:44.228Z,54.52
2019-03-10T00:36:46.132Z,55.08
2019-03-10T00:40:00.614Z,54.17
2019-03-10T00:43:23.061Z,54.15
2019-03-10T00:46:48.422Z,53.66
2019-03-10T00:50:11.981Z,54.19
2019-03-10T00:53:14.042Z,53.99
2019-03-10T00:56:15.922Z,54.43
2019-03-10T00:59:18.267Z,54.26
2019-03-10T01:02:20.143Z,54.16
2019-03-10T01:05:22.082Z,53.18
2019-03-10T01:08:24.230Z,52.91
2019-03-10T01:11:26.290Z,53.02
2019-03-10T01:14:28.141Z,53.30
2019-03-10T01:17:30.344Z,54.24
2019-03-10T01:20:32.375Z,54.17
2019-03-10T01:23:34.318Z,54.55
2019-03-10T01:26:37.969Z,53.83
2019-03-10T01:29:39.923Z,53.89
2019-03-10T01:33:02.339Z,53.59
2019-03-10T01:36:07.846Z,53.96
2019-03-10T01:39:10.187Z,54.88
2019-03-10T01:42:12.377Z,55.91
2019-03-10T01:45:14.336Z,56.58
2019-03-10T01:48:16.267Z,56.72
2019-03-10T01:51:18.228Z,56.73
2019-03-10T01:54:20.246Z,57.32
2019-03-10T01:57:22.897Z,57.11
2019-03-10T02:00:24.807Z,57.33
2019-03-10T02:03:29.777Z,57.19
2019-03-10T02:06:31.659Z,56.86
2019-03-10T02:09:33.561Z,56.60
2019-03-10T02:12:35.504Z,56.70
2019-03-10T02:15:37.378Z,56.23
2019-03-10T02:18:39.272Z,56.37
2019-03-10T02:21:41.158Z,56.51
2019-03-10T02:24:42.996Z,56.78
2019-03-10T02:27:44.963Z,56.79
2019-03-10T02:30:47.004Z,57.13
2019-03-10T02:33:48.941Z,57.37
2019-03-10T02:36:50.889Z,57.84
2019-03-10T02:39:52.811Z,58.45
2019-03-10T02:42:54.660Z,58.65
2019-03-10T02:45:56.559Z,59.11
2019-03-10T02:48:58.438Z,59.24
2019-03-10T02:52:00.305Z,59.26
2019-03-10T02:55:02.826Z,59.57
2019-03-10T02:58:04.752Z,59.69
2019-03-10T03:01:06.729Z,59.63
2019-03-10T03:04:08.698Z,59.68
2019-03-10T03:07:10.559Z,59.97
2019-03-10T03:10:13.091Z,60.08
2019-03-10T03:13:15.018Z,60.13
2019-03-10T03:16:16.906Z,60.39
2019-03-10T03:19:18.820Z,60.73
2019-03-10T03:22:20.741Z,60.96
2019-03-10T03:25:22.644Z,61.05
2019-03-10T03:28:24.515Z,61.19
2019-03-10T03:31:26.427Z,61.17
2019-03-10T03:34:28.341Z,61.15
2019-03-10T03:37:30.252Z,60.97
2019-03-10T03:40:32.217Z,60.50
2019-03-10T03:43:34.082Z,59.92
2019-03-10T03:46:35.975Z,59.99
2019-03-10T03:49:37.859Z,60.05
2019-03-10T03:52:39.856Z,59.57
2019-03-10T03:55:41.915Z,59.47
2019-03-10T03:58:43.885Z,59.29
2019-03-10T04:01:50.549Z,59.32
2019-03-10T04:04:52.508Z,59.01
2019-03-10T04:07:54.489Z,59.06
2019-03-10T04:10:56.380Z,58.88
2019-03-10T04:13:58.465Z,59.04
2019-03-10T04:17:00.379Z,59.19
2019-03-10T04:20:04.525Z,59.46
2019-03-10T04:23:06.484Z,59.80
2019-03-10T04:26:08.498Z,59.62
2019-03-10T04:29:10.432Z,59.45
2019-03-10T04:32:12.314Z,59.41
2019-03-10T04:35:14.232Z,59.23
2019-03-10T04:38:16.065Z,58.80
2019-03-10T04:41:18.030Z,58.81
2019-03-10T04:44:19.861Z,58.47
2019-03-10T04:47:22.500Z,58.22
2019-03-10T04:50:24.414Z,58.11
2019-03-10T04:53:26.411Z,57.99
2019-03-10T04:56:33.226Z,57.62
2019-03-10T04:59:35.707Z,57.66
2019-03-10T05:02:37.682Z,57.78
2019-03-10T05:05:40.853Z,57.50
2019-03-10T05:08:42.782Z,57.16
2019-03-10T05:11:44.715Z,57.09
2019-03-10T05:14:46.577Z,56.37
2019-03-10T05:17:48.544Z,56.36
2019-03-10T05:20:50.370Z,56.17
2019-03-10T05:23:53.134Z,56.05
2019-03-10T05:26:55.035Z,55.44
2019-03-10T05:29:56.963Z,55.38
2019-03-10T05:32:58.862Z,54.30
2019-03-10T05:36:00.793Z,52.85
2019-03-10T05:39:04.452Z,50.81
2019-03-10T05:42:07.422Z,50.12
2019-03-10T05:45:09.489Z,49.99
2019-03-10T05:48:12.920Z,49.98
2019-03-10T05:51:14.875Z,49.79
2019-03-10T05:54:16.748Z,49.37
2019-03-10T05:57:18.771Z,49.70
2019-03-10T06:00:20.808Z,50.63
2019-03-10T06:03:22.871Z,51.37
2019-03-10T06:06:24.718Z,52.10
2019-03-10T06:09:27.759Z,52.48
2019-03-10T06:12:29.619Z,52.72
2019-03-10T06:15:31.565Z,52.96
2019-03-10T06:18:33.477Z,53.08
2019-03-10T06:21:35.464Z,52.57
2019-03-10T06:24:37.340Z,52.59
2019-03-10T06:27:39.250Z,52.83
2019-03-10T06:30:41.139Z,52.71
2019-03-10T06:33:43.220Z,52.95
2019-03-10T06:36:45.137Z,53.05
2019-03-10T06:39:47.125Z,52.96
2019-03-10T06:42:49.005Z,52.76
2019-03-10T06:45:50.956Z,53.19
2019-03-10T06:48:52.937Z,52.90
2019-03-10T06:51:54.913Z,52.39
2019-03-10T06:54:56.818Z,51.89
2019-03-10T06:57:58.796Z,51.37
2019-03-10T07:01:00.691Z,51.35
2019-03-10T07:04:02.792Z,51.43
2019-03-10T07:07:04.652Z,51.07
2019-03-10T07:10:09.563Z,50.67
2019-03-10T07:13:11.531Z,50.18
2019-03-10T07:16:13.391Z,49.62
2019-03-10T07:19:15.225Z,49.13
2019-03-10T07:22:17.076Z,49.25
2019-03-10T07:25:18.989Z,48.81
2019-03-10T07:28:22.658Z,48.68
2019-03-10T07:31:32.620Z,48.36
2019-03-10T07:34:42.319Z,47.98
2019-03-10T07:37:58.178Z,47.82
2019-03-10T07:41:10.896Z,47.57
2019-03-10T07:44:14.598Z,46.99
2019-03-10T07:47:18.246Z,47.54
2019-03-10T07:50:38.535Z,47.24
2019-03-10T07:53:45.257Z,47.82
2019-03-10T07:56:51.791Z,48.02
2019-03-10T08:00:12.213Z,48.05
2019-03-10T08:03:22.178Z,46.82
2019-03-10T08:06:25.985Z,46.17
2019-03-10T08:09:35.426Z,46.00
2019-03-10T08:12:39.124Z,46.15
2019-03-10T08:15:48.814Z,46.26
2019-03-10T08:19:07.975Z,46.37
2019-03-10T08:22:18.012Z,46.15
2019-03-10T08:25:24.738Z,45.75
2019-03-10T08:28:28.455Z,44.67
2019-03-10T08:31:50.582Z,44.95
2019-03-10T08:34:54.307Z,45.12
2019-03-10T08:38:10.126Z,44.66
2019-03-10T08:41:16.422Z,44.73
2019-03-10T08:44:20.086Z,45.12
2019-03-10T08:47:42.279Z,45.75
2019-03-10T08:50:48.754Z,45.58
2019-03-10T08:53:58.154Z,46.05
2019-03-10T08:57:01.871Z,46.05
2019-03-10T09:00:18.179Z,45.98
2019-03-10T09:03:24.761Z,46.18
2019-03-10T09:06:28.518Z,46.50
2019-03-10T09:09:32.264Z,46.21
2019-03-10T09:12:35.996Z,46.16
2019-03-10T09:15:45.859Z,46.76
2019-03-10T09:18:49.641Z,46.58
2019-03-10T09:22:11.776Z,45.75
2019-03-10T09:25:32.111Z,45.94
2019-03-10T09:28:35.763Z,45.38
2019-03-10T09:31:42.298Z,45.16
2019-03-10T09:34:45.983Z,45.42
2019-03-10T09:37:52.837Z,45.49
2019-03-10T09:41:02.602Z,45.94
2019-03-10T09:44:06.297Z,45.03
2019-03-10T09:47:22.323Z,45.19
2019-03-10T09:50:26.046Z,45.65
2019-03-10T09:53:46.431Z,45.68
2019-03-10T09:57:06.736Z,45.54
2019-03-10T10:00:29.037Z,46.39
2019-03-10T10:03:35.193Z,46.30
2019-03-10T10:06:54.302Z,46.41
2019-03-10T10:10:03.810Z,46.51
2019-03-10T10:13:16.675Z,46.39
2019-03-10T10:16:23.383Z,48.11
2019-03-10T10:19:27.054Z,47.35
2019-03-10T10:22:36.690Z,47.35
2019-03-10T10:25:40.771Z,46.63
2019-03-10T10:29:01.984Z,47.21
2019-03-10T10:32:18.737Z,46.19
2019-03-10T10:35:34.270Z,46.64
2019-03-10T10:38:50.180Z,46.38
2019-03-10T10:41:53.980Z,46.64
2019-03-10T10:45:14.194Z,47.02
2019-03-10T10:48:17.920Z,46.74
2019-03-10T10:51:25.544Z,46.59
2019-03-10T10:54:40.917Z,46.92
2019-03-10T10:57:50.922Z,46.72
2019-03-10T11:01:00.687Z,46.40
2019-03-10T11:04:10.000Z,46.20
2019-03-10T11:07:13.671Z,45.86
2019-03-10T11:10:23.007Z,46.10
2019-03-10T11:13:26.757Z,45.66
2019-03-10T11:16:47.546Z,45.87
2019-03-10T11:19:51.236Z,45.66
2019-03-10T11:22:58.068Z,45.47
2019-03-10T11:26:02.842Z,45.99
2019-03-10T11:29:09.418Z,45.94
2019-03-10T11:32:13.116Z,46.03
2019-03-10T11:35:31.897Z,47.20
2019-03-10T11:38:38.247Z,46.96
2019-03-10T11:41:58.595Z,47.31
2019-03-10T11:45:19.123Z,48.20
2019-03-10T11:48:34.677Z,47.82
2019-03-10T11:51:55.409Z,48.11
2019-03-10T11:55:15.542Z,48.84
2019-03-10T11:58:19.308Z,50.13
2019-03-10T12:01:41.151Z,51.33
2019-03-10T12:05:00.385Z,52.06
2019-03-10T12:08:13.301Z,53.11
2019-03-10T12:11:16.182Z,53.55
2019-03-10T12:14:18.153Z,53.69
2019-03-10T12:17:20.109Z,54.56
2019-03-10T12:20:22.067Z,54.72
2019-03-10T12:23:24.063Z,55.29
2019-03-10T12:26:27.099Z,55.16
2019-03-10T12:29:29.082Z,55.72
2019-03-10T12:32:31.255Z,56.57
2019-03-10T12:35:34.697Z,57.31
2019-03-10T12:38:36.907Z,58.46
2019-03-10T12:41:38.874Z,59.11
2019-03-10T12:44:40.791Z,59.07
2019-03-10T12:47:43.224Z,58.76
2019-03-10T12:50:45.213Z,58.56
2019-03-10T12:53:47.147Z,58.79
2019-03-10T12:56:49.038Z,58.73
2019-03-10T12:59:51.240Z,59.13
2019-03-10T13:02:53.265Z,59.12
2019-03-10T13:05:55.166Z,57.95
2019-03-10T13:08:57.127Z,57.47
2019-03-10T13:11:58.995Z,57.05
2019-03-10T13:15:01.425Z,57.63
2019-03-10T13:18:03.517Z,57.57
2019-03-10T13:21:05.576Z,57.75
2019-03-10T13:24:07.465Z,58.33
2019-03-10T13:27:09.545Z,59.17
2019-03-10T13:30:14.569Z,59.48
2019-03-10T13:33:16.548Z,59.39
2019-03-10T13:36:19.803Z,59.51
2019-03-10T13:39:22.323Z,60.04
2019-03-10T13:42:24.245Z,59.97
2019-03-10T13:45:26.208Z,59.85
2019-03-10T13:48:28.117Z,59.89
2019-03-10T13:51:30.157Z,59.71
2019-03-10T13:54:32.103Z,59.59
2019-03-10T13:57:34.100Z,59.44
2019-03-10T14:00:36.065Z,59.31
2019-03-10T14:03:39.487Z,59.27
2019-03-10T14:06:41.374Z,59.01
2019-03-10T14:09:43.294Z,58.76
2019-03-10T14:12:47.821Z,58.68
2019-03-10T14:15:51.760Z,58.73
2019-03-10T14:18:53.639Z,59.02
2019-03-10T14:21:55.752Z,59.30
2019-03-10T14:24:57.657Z,59.47
2019-03-10T14:27:59.640Z,59.00
2019-03-10T14:31:01.542Z,58.53
2019-03-10T14:34:05.034Z,59.14
2019-03-10T14:37:06.933Z,59.79
2019-03-10T14:40:15.072Z,60.65
2019-03-10T14:43:18.791Z,60.81
2019-03-10T14:46:20.742Z,62.53
2019-03-10T14:49:23.730Z,63.40
2019-03-10T14:52:30.209Z,64.71
2019-03-10T14:55:32.106Z,65.99
2019-03-10T14:58:34.304Z,65.87
2019-03-10T15:01:38.457Z,66.14
2019-03-10T15:04:40.566Z,67.36
2019-03-10T15:07:42.488Z,67.28
2019-03-10T15:10:46.944Z,67.32
2019-03-10T15:13:49.223Z,67.23
2019-03-10T15:16:51.248Z,67.44
2019-03-10T15:19:53.223Z,67.72
2019-03-10T15:22:57.165Z,68.15
2019-03-10T15:26:01.848Z,68.21
2019-03-10T15:29:04.313Z,67.88
2019-03-10T15:32:08.476Z,67.53
2019-03-10T15:35:10.470Z,66.75
2019-03-10T15:38:13.201Z,67.60
2019-03-10T15:41:17.415Z,68.41
2019-03-10T15:44:19.316Z,68.23
2019-03-10T15:47:21.220Z,68.98
2019-03-10T15:50:28.623Z,68.98
2019-03-10T15:53:32.860Z,69.71
2019-03-10T15:56:35.938Z,69.40
2019-03-10T15:59:37.962Z,69.74
2019-03-10T16:02:40.548Z,69.81
2019-03-10T16:05:44.680Z,70.24
2019-03-10T16:08:47.158Z,69.98
2019-03-10T16:11:49.501Z,70.09
2019-03-10T16:14:53.362Z,69.66
2019-03-10T16:17:55.275Z,69.53
2019-03-10T16:20:59.066Z,69.55
2019-03-10T16:24:01.196Z,69.67
2019-03-10T16:27:03.952Z,70.06
2019-03-10T16:30:16.821Z,70.24
2019-03-10T16:33:20.234Z,70.47
2019-03-10T16:36:22.192Z,70.58
2019-03-10T16:39:26.023Z,70.53
2019-03-10T16:42:29.443Z,70.12
2019-03-10T16:45:31.417Z,69.60
2019-03-10T16:48:34.800Z,69.14
2019-03-10T16:51:36.794Z,68.73
2019-03-10T16:54:40.143Z,68.76
2019-03-10T16:57:43.998Z,68.39
2019-03-10T17:00:48.645Z,68.13
2019-03-10T17:03:50.709Z,68.09
2019-03-10T17:06:54.663Z,68.03
2019-03-10T17:09:56.961Z,67.74
2019-03-10T17:13:02.126Z,67.42
2019-03-10T17:16:05.764Z,67.07
2019-03-10T17:19:10.383Z,66.63
2019-03-10T17:22:12.451Z,66.46
2019-03-10T17:25:16.909Z,66.30
2019-03-10T17:28:18.880Z,66.23
2019-03-10T17:31:20.959Z,66.12
2019-03-10T17:34:25.092Z,66.34
2019-03-10T17:37:27.153Z,66.24
2019-03-10T17:40:29.482Z,66.61
2019-03-10T17:43:34.005Z,66.57
2019-03-10T17:46:36.395Z,66.83
2019-03-10T17:49:38.448Z,67.09
2019-03-10T17:52:40.513Z,67.04
2019-03-10T17:55:45.842Z,66.98
2019-03-10T17:58:48.257Z,66.60
2019-03-10T18:01:52.089Z,66.44
2019-03-10T18:04:54.077Z,66.22
2019-03-10T18:07:56.174Z,66.00
2019-03-10T18:10:58.168Z,65.80
2019-03-10T18:14:02.075Z,65.41
2019-03-10T18:17:07.191Z,65.50
2019-03-10T18:20:17.364Z,65.53
2019-03-10T18:23:21.063Z,65.51
2019-03-10T18:26:23.467Z,65.55
2019-03-10T18:29:27.744Z,65.57
2019-03-10T18:32:29.929Z,65.21
2019-03-10T18:35:31.844Z,64.92
2019-03-10T18:38:35.355Z,64.80
2019-03-10T18:41:37.346Z,64.93
2019-03-10T18:44:41.946Z,65.31
2019-03-10T18:47:43.965Z,65.53
2019-03-10T18:50:48.040Z,65.30
2019-03-10T18:53:52.870Z,64.96
2019-03-10T18:56:57.183Z,65.51
2019-03-10T19:00:01.288Z,65.23
2019-03-10T19:03:03.457Z,64.83
2019-03-10T19:06:05.995Z,64.93
2019-03-10T19:09:11.951Z,64.56
2019-03-10T19:12:16.292Z,64.54
2019-03-10T19:15:25.413Z,64.33
2019-03-10T19:18:31.729Z,64.56
2019-03-10T19:21:36.071Z,65.01
2019-03-10T19:24:42.184Z,64.81
2019-03-10T19:27:45.919Z,64.86
2019-03-10T19:30:49.446Z,64.37
2019-03-10T19:33:51.431Z,64.37
2019-03-10T19:36:57.336Z,63.96
2019-03-10T19:40:00.247Z,62.74
2019-03-10T19:43:02.161Z,62.97
2019-03-10T19:46:06.978Z,63.32
2019-03-10T19:49:08.874Z,63.56
2019-03-10T19:52:12.371Z,64.13
2019-03-10T19:55:14.709Z,64.36
2019-03-10T19:58:16.723Z,64.94
2019-03-10T20:01:20.183Z,64.82
2019-03-10T20:04:23.935Z,64.07
2019-03-10T20:07:28.163Z,62.92
2019-03-10T20:10:31.327Z,61.66
2019-03-10T20:13:34.635Z,61.03
2019-03-10T20:16:41.217Z,60.75
2019-03-10T20:19:48.705Z,60.99
2019-03-10T20:22:56.721Z,61.37
2019-03-10T20:26:00.159Z,61.66
2019-03-10T20:29:02.219Z,61.26
2019-03-10T20:32:13.495Z,60.03
2019-03-10T20:35:08.591Z,59.01
2019-03-10T20:38:11.639Z,58.40
2019-03-10T20:41:15.134Z,58.52
2019-03-10T20:44:17.556Z,57.69
2019-03-10T20:47:19.510Z,56.90
2019-03-10T20:50:21.497Z,56.61
2019-03-10T20:53:23.431Z,55.47
2019-03-10T20:56:25.870Z,54.17
2019-03-10T20:59:28.700Z,52.45
2019-03-10T21:02:30.663Z,50.89
2019-03-10T21:05:32.648Z,51.09
2019-03-10T21:08:34.849Z,50.47
2019-03-10T21:11:38.517Z,49.55
2019-03-10T21:14:40.388Z,47.33
2019-03-10T21:17:43.113Z,47.34
2019-03-10T21:20:45.547Z,48.61
2019-03-10T21:23:47.507Z,48.01
2019-03-10T21:26:50.434Z,47.41
2019-03-10T21:29:53.539Z,47.36
2019-03-10T21:32:55.513Z,47.76
2019-03-10T21:35:58.748Z,47.66
2019-03-10T21:39:00.582Z,47.22
2019-03-10T21:42:04.312Z,46.77
2019-03-10T21:45:08.476Z,46.43
2019-03-10T21:48:10.414Z,45.96
2019-03-10T21:51:12.364Z,45.33
2019-03-10T21:54:14.364Z,46.23
2019-03-10T21:57:16.306Z,46.05
2019-03-10T22:00:19.393Z,45.74
2019-03-10T22:03:21.331Z,45.44
2019-03-10T22:06:23.331Z,44.77
2019-03-10T22:09:26.523Z,44.71
2019-03-10T22:12:28.573Z,44.61
2019-03-10T22:15:40.712Z,43.99
2019-03-10T22:18:34.439Z,43.88
2019-03-10T22:21:36.416Z,43.53
2019-03-10T22:24:38.555Z,44.43
2019-03-10T22:27:40.479Z,44.47
2019-03-10T22:30:42.421Z,44.20
2019-03-10T22:33:44.349Z,43.82
2019-03-10T22:36:46.253Z,44.47
2019-03-10T22:39:48.186Z,43.37
2019-03-10T22:42:51.321Z,44.49
2019-03-10T22:45:53.271Z,43.88
2019-03-10T22:48:55.179Z,44.92
2019-03-10T22:51:57.227Z,44.63
2019-03-10T22:54:59.195Z,43.64
2019-03-10T22:58:01.106Z,45.56
2019-03-10T23:01:03.374Z,46.67
2019-03-10T23:04:05.870Z,47.68
2019-03-10T23:07:07.779Z,47.48
2019-03-10T23:10:12.574Z,46.92
2019-03-10T23:13:14.630Z,46.71
2019-03-10T23:16:18.388Z,46.71
2019-03-10T23:19:20.407Z,46.42
2019-03-10T23:22:22.353Z,47.54
2019-03-10T23:25:24.278Z,48.12
2019-03-10T23:28:26.161Z,49.20
2019-03-10T23:31:28.223Z,49.85
2019-03-10T23:34:30.155Z,51.40
2019-03-10T23:37:32.068Z,52.93
2019-03-10T23:40:34.017Z,54.89
2019-03-10T23:43:35.939Z,56.35
2019-03-10T23:46:38.235Z,57.32
2019-03-10T23:49:40.144Z,58.00
2019-03-10T23:52:42.080Z,60.06
2019-03-10T23:55:43.933Z,60.86
2019-03-10T23:58:45.862Z,60.89
